Latest Weather Observations for Terrey Hills

IDN60801

Issued at 3:33 pm EDT Monday 2 March 2015 (issued every 30 minutes, with the page automatically refreshed every 10 minutes)

About weather observations | Map of weather stations | Latest weather observations for NSW | Other Formats
Station Details ID: 066059 Name: TERREY HILLS AWS Lat: -33.69 Lon: 151.23 Height: 199.0 m
Data from the previous 72 hours. | See also: Recent months at Terrey Hills
Date/Time
EDT
Temp
°C
App
Temp
°C
Dew
Point
Rel
Hum
%
Delta-T
°C
Wind Press
QNH
hPa
Press
MSL
hPa
Rain
since 9 am
mm
Dir
 
Spd
km/h
Gust
km/h
Spd
kts
Gust
kts
02/03:30pm 20.7 20.6 15.9 74 2.9 E 11 20 6 11 - - 0.0
02/03:00pm 21.3 21.2 16.0 72 3.2 ESE 11 22 6 12 - - 0.0
02/02:30pm 21.1 21.9 16.3 74 2.9 ESE 7 15 4 8 - - 0.0
02/02:00pm 21.5 21.7 16.7 74 2.9 ESE 11 24 6 13 - - 0.0
02/01:30pm 21.7 22.4 17.1 75 2.8 SE 9 17 5 9 - - 0.0
02/01:00pm 21.0 21.4 16.2 74 2.9 SSE 9 15 5 8 - - 0.0
02/12:30pm 20.9 21.5 15.9 73 3.0 SE 7 11 4 6 - - 0.0
02/12:00pm 20.6 20.7 15.4 72 3.1 SSE 9 20 5 11 - - 0.0
02/11:30am 20.8 21.5 16.0 74 2.9 SSE 7 13 4 7 - - 0.0
02/11:00am 20.3 19.5 15.1 72 3.1 S 13 24 7 13 - - 0.0
02/10:30am 19.9 19.8 14.9 73 3.0 S 9 17 5 9 - - 0.0
02/10:00am 19.8 19.3 14.8 73 2.9 S 11 24 6 13 - - 0.0
02/09:30am 19.5 18.7 15.2 76 2.6 SSW 13 20 7 11 - - 0.0
02/09:00am 18.2 17.4 13.9 76 2.5 SSW 11 20 6 11 - - 9.6
02/08:30am 17.2 15.7 13.1 77 2.3 SW 13 24 7 13 - - 9.6
02/08:00am 16.8 15.6 12.9 78 2.2 WSW 11 17 6 9 - - 9.6
02/07:30am 16.0 14.7 12.6 80 1.9 WSW 11 17 6 9 - - 9.6
02/07:00am 15.9 15.4 12.5 80 1.9 WSW 7 13 4 7 - - 9.6
02/06:30am 16.4 15.6 12.8 79 2.0 SW 9 13 5 7 - - 9.6
02/06:00am 17.3 16.2 13.0 76 2.4 SW 11 15 6 8 - - 9.6
02/05:30am 17.6 17.0 13.5 77 2.3 SW 9 19 5 10 - - 9.6
02/05:00am 17.9 17.0 13.8 77 2.4 SSW 11 17 6 9 - - 9.6
02/04:30am 19.2 18.4 12.9 67 3.6 S 9 17 5 9 - - 9.6
02/04:00am 19.3 18.6 13.3 68 3.4 S 9 17 5 9 - - 9.6
02/03:30am 19.4 18.1 13.6 69 3.3 S 13 26 7 14 - - 9.6
02/03:00am 19.1 17.8 13.7 71 3.1 SSE 13 28 7 15 - - 9.6
02/02:30am 19.1 18.3 13.9 72 3.0 S 11 20 6 11 - - 9.6
02/02:00am 19.2 18.1 13.2 68 3.4 S 11 20 6 11 - - 9.6
02/01:30am 19.3 17.8 13.0 67 3.6 SSE 13 28 7 15 - - 9.6
02/01:00am 19.1 17.7 13.3 69 3.3 S 13 28 7 15 - - 9.6
02/12:30am 19.3 16.6 12.8 66 3.7 SSE 19 30 10 16 - - 9.6
02/12:00am 19.5 17.3 14.3 72 3.0 SSE 19 35 10 19 - - 9.6
 
Date/Time
EDT
Temp
°C
App
Temp
°C
Dew
Point
Rel
Hum
%
Delta-T
°C
Wind Press
QNH
hPa
Press
MSL
hPa
Rain
since 9 am
mm
Dir
 
Spd
km/h
Gust
km/h
Spd
kts
Gust
kts
01/11:30pm 19.6 17.1 14.0 70 3.3 S 20 39 11 21 - - 9.6
01/11:00pm 19.7 18.6 14.3 71 3.2 S 13 26 7 14 - - 9.6
01/10:30pm 19.9 17.4 14.0 69 3.4 S 20 41 11 22 - - 9.6
01/10:00pm 19.8 18.2 15.0 74 2.8 S 17 30 9 16 - - 9.6
01/09:30pm 19.6 18.2 15.5 77 2.4 S 17 32 9 17 - - 9.6
01/09:00pm 19.4 19.0 16.2 82 1.9 S 13 30 7 16 - - 9.6
01/08:30pm 18.6 18.1 17.8 95 0.5 S 17 32 9 17 - - 9.6
01/08:00pm 18.7 17.2 18.5 99 0.1 S 24 54 13 29 - - 9.6
01/07:30pm 19.2 18.1 18.7 97 0.3 S 22 39 12 21 - - 9.4
01/07:00pm 19.6 18.9 19.4 99 0.1 S 22 43 12 23 - - 9.4
01/06:30pm 20.4 20.7 20.4 100 0.0 SSE 19 37 10 20 - - 9.4
01/06:00pm 20.3 20.4 20.3 100 0.0 S 20 35 11 19 - - 9.4
01/05:30pm 20.2 19.0 20.0 99 0.1 S 26 46 14 25 - - 9.0
01/05:07pm 20.7 19.3 20.4 98 0.2 SSW 28 54 15 29 - - 5.6
01/05:00pm 20.8 20.9 20.3 97 0.3 SSW 20 41 11 22 - - 5.6
01/04:30pm 22.6 23.4 19.8 84 1.8 SE 15 28 8 15 - - 2.2
01/04:07pm 25.4 25.8 19.1 68 4.1 SSE 15 48 8 26 - - 0.0
01/04:00pm 30.4 32.6 19.7 52 7.1 NNE 7 15 4 8 - - 0.0
01/03:30pm 32.8 35.7 21.0 50 8.0 NE 7 15 4 8 - - 0.0
01/03:00pm 35.1 36.1 16.4 32 12.0 NW 6 15 3 8 - - 0.0
01/02:30pm 34.6 34.3 16.4 33 11.6 NNW 13 20 7 11 - - 0.0
01/02:00pm 34.5 34.5 17.3 36 11.1 WNW 13 28 7 15 - - 0.0
01/01:30pm 34.2 34.7 17.4 36 10.9 WNW 11 20 6 11 - - 0.0
01/01:00pm 33.5 33.8 18.0 39 10.1 WNW 13 22 7 12 - - 0.0
01/12:30pm 32.5 34.6 20.1 48 8.3 NW 9 24 5 13 - - 0.0
01/12:00pm 31.5 33.2 20.1 50 7.6 NW 11 20 6 11 - - 0.0
01/11:30am 30.7 32.5 20.3 53 6.9 NW 11 20 6 11 - - 0.0
01/11:00am 29.9 32.4 20.2 56 6.4 NW 7 15 4 8 - - 0.0
01/10:30am 28.9 31.3 20.9 62 5.3 NW 9 17 5 9 - - 0.0
01/10:00am 27.1 28.4 19.4 62 5.0 NW 11 20 6 11 - - 0.0
01/09:30am 25.5 27.2 20.1 72 3.5 NNW 11 20 6 11 - - 0.0
01/09:00am 24.0 25.4 20.3 80 2.4 NNW 13 22 7 12 - - 0.0
01/08:30am 23.1 24.7 19.9 82 2.1 NNW 11 19 6 10 - - 0.0
01/08:00am 21.8 23.7 19.7 88 1.4 NNW 9 19 5 10 - - 0.0
01/07:30am 21.2 23.1 19.8 92 0.9 NNW 9 17 5 9 - - 0.0
01/07:00am 21.0 22.1 19.7 92 0.8 NNW 13 20 7 11 - - 0.0
01/06:30am 21.0 22.2 19.8 93 0.8 NNW 13 20 7 11 - - 0.0
01/06:00am 20.7 21.9 19.9 95 0.5 NNW 13 17 7 9 - - 0.0
01/05:30am 20.8 22.0 20.0 95 0.5 NNW 13 17 7 9 - - 0.0
01/05:00am 21.1 22.7 19.9 93 0.8 NNW 11 19 6 10 - - 0.0
01/04:30am 21.0 22.6 20.0 94 0.6 NNW 11 17 6 9 - - 0.0
01/04:00am 21.4 23.1 20.2 93 0.8 N 11 17 6 9 - - 0.0
01/03:30am 21.3 23.4 20.1 93 0.8 NNW 9 15 5 8 - - 0.0
01/03:00am 21.2 23.2 20.0 93 0.8 NNW 9 15 5 8 - - 0.0
01/02:30am 21.3 23.3 19.9 92 0.9 NNW 9 13 5 7 - - 0.0
01/02:00am 21.1 23.2 20.1 94 0.6 NNW 9 11 5 6 - - 0.0
01/01:30am 21.3 23.5 20.5 95 0.5 N 9 13 5 7 - - 0.0
01/01:00am 21.4 23.6 20.4 94 0.6 N 9 13 5 7 - - 0.0
01/12:30am 21.7 23.5 20.3 92 0.9 N 11 15 6 8 - - 0.0
01/12:00am 21.8 23.2 20.3 91 1.0 N 13 17 7 9 - - 0.0
 
Date/Time
EDT
Temp
°C
App
Temp
°C
Dew
Point
Rel
Hum
%
Delta-T
°C
Wind Press
QNH
hPa
Press
MSL
hPa
Rain
since 9 am
mm
Dir
 
Spd
km/h
Gust
km/h
Spd
kts
Gust
kts
28/11:30pm 21.8 23.2 20.4 92 0.9 N 13 20 7 11 - - 0.0
28/11:00pm 21.9 23.3 20.4 91 1.0 N 13 19 7 10 - - 0.0
28/10:30pm 21.7 23.3 20.7 94 0.7 N 13 17 7 9 - - 0.0
28/10:00pm 21.7 22.9 20.7 94 0.7 N 15 24 8 13 - - 0.0
28/09:30pm 21.8 23.6 20.4 92 0.9 NNE 11 22 6 12 - - 0.0
28/09:00pm 21.8 23.2 20.3 91 1.0 NNE 13 22 7 12 - - 0.0
28/08:30pm 21.7 23.0 20.2 91 1.0 NNE 13 20 7 11 - - 0.0
28/08:00pm 21.7 23.5 20.3 92 0.9 NE 11 22 6 12 - - 0.0
28/07:30pm 21.9 24.1 20.5 92 0.9 NE 9 17 5 9 - - 0.0
28/07:00pm 22.5 24.4 20.6 89 1.2 NE 11 22 6 12 - - 0.0
28/06:30pm 23.1 24.9 20.4 85 1.8 NE 11 20 6 11 - - 0.0
28/06:00pm 23.5 25.1 20.0 81 2.3 NE 11 20 6 11 - - 0.0
28/05:30pm 24.4 26.4 19.9 76 2.9 NE 9 20 5 11 - - 0.0
28/05:00pm 24.4 25.3 19.2 73 3.3 NE 13 24 7 13 - - 0.0
28/04:30pm 24.7 26.6 19.8 74 3.2 NNE 9 22 5 12 - - 0.0
28/04:00pm 24.5 25.8 19.3 73 3.4 NE 11 22 6 12 - - 0.0
28/03:30pm 25.6 27.0 19.5 69 4.0 ENE 11 24 6 13 - - 0.0
28/03:00pm 25.9 27.3 19.5 68 4.2 NE 11 20 6 11 - - 0.0
28/02:30pm 26.4 28.4 20.7 71 3.8 ENE 11 20 6 11 - - 0.0
28/02:00pm 26.1 27.3 20.7 72 3.6 ENE 15 22 8 12 - - 0.0
28/01:30pm 27.2 30.3 22.2 74 3.4 NE 9 17 5 9 - - 0.0
28/01:00pm 25.7 28.5 20.5 73 3.4 NNE 6 13 3 7 - - 0.0
28/12:30pm 25.5 28.1 20.1 72 3.5 NE 6 15 3 8 - - 0.0
28/12:00pm 25.1 27.4 19.9 73 3.4 NE 7 11 4 6 - - 0.0
28/11:30am 24.0 26.2 19.1 74 3.1 NNE 6 11 3 6 - - 0.0
28/11:00am 23.9 26.5 20.4 81 2.3 ENE 7 13 4 7 - - 0.0
28/10:30am 23.1 25.7 20.4 85 1.8 NE 7 9 4 5 - - 0.0
28/10:00am 22.1 24.3 19.6 86 1.6 N 7 11 4 6 - - 0.0
28/09:30am 21.7 23.8 19.3 86 1.5 N 7 11 4 6 - - 0.0
28/09:00am 21.2 23.6 18.9 87 1.5 NNE 4 6 2 3 - - 3.8
28/08:30am 20.8 23.2 18.9 89 1.2 N 4 7 2 4 - - 3.8
28/08:00am 20.4 22.4 18.7 90 1.1 N 6 7 3 4 - - 3.8
28/07:30am 20.1 22.1 18.8 92 0.8 N 6 7 3 4 - - 3.8
28/07:00am 19.3 21.2 18.6 96 0.4 NNW 6 7 3 4 - - 3.8
28/06:30am 18.8 20.9 18.0 95 0.5 NNW 4 6 2 3 - - 3.8
28/06:00am 19.3 20.9 18.3 94 0.6 N 7 11 4 6 - - 3.8
28/05:30am 19.0 20.8 18.8 99 0.1 N 7 9 4 5 - - 3.8
28/05:00am 18.7 21.0 18.5 99 0.1 NNW 4 6 2 3 - - 3.8
28/04:30am 18.6 20.8 18.4 99 0.1 NW 4 6 2 3 - - 3.8
28/04:00am 18.6 20.8 18.4 99 0.1 WNW 4 6 2 3 - - 3.8
28/03:30am 18.4 20.5 18.2 99 0.1 WNW 4 6 2 3 - - 3.8
28/03:00am 18.9 21.2 18.6 98 0.2 NW 4 6 2 3 - - 3.8
28/02:30am 19.1 21.4 18.6 97 0.3 NNW 4 7 2 4 - - 3.8
28/02:00am 19.6 21.7 18.9 96 0.4 N 6 9 3 5 - - 3.8
28/01:30am 19.8 21.9 19.3 97 0.3 N 7 9 4 5 - - 3.8
28/01:00am 19.7 22.1 18.9 95 0.5 NNW 4 7 2 4 - - 3.8
28/12:30am 20.1 22.1 19.1 94 0.6 N 7 11 4 6 - - 3.8
28/12:00am 20.2 22.1 19.0 93 0.8 N 7 11 4 6 - - 3.8
 
Date/Time
EDT
Temp
°C
App
Temp
°C
Dew
Point
Rel
Hum
%
Delta-T
°C
Wind Press
QNH
hPa
Press
MSL
hPa
Rain
since 9 am
mm
Dir
 
Spd
km/h
Gust
km/h
Spd
kts
Gust
kts
27/11:30pm 20.3 22.0 19.3 94 0.6 NNE 9 15 5 8 - - 3.8
27/11:00pm 20.2 22.5 19.4 95 0.5 NE 6 9 3 5 - - 3.8
27/10:30pm 20.2 22.5 19.5 96 0.4 NE 6 9 3 5 - - 3.8
27/10:00pm 20.3 22.5 19.3 94 0.6 NE 6 11 3 6 - - 3.8
27/09:30pm 20.6 22.9 19.8 95 0.5 NE 7 17 4 9 - - 3.8
27/09:00pm 20.7 22.7 19.9 95 0.5 ENE 9 13 5 7 - - 3.8
27/08:30pm 20.8 23.3 19.8 94 0.6 NE 6 9 3 5 - - 3.8
27/08:00pm 20.8 23.0 19.6 93 0.8 ENE 7 13 4 7 - - 3.8
27/07:30pm 21.2 22.7 19.7 91 1.0 ENE 11 17 6 9 - - 3.8
27/07:00pm 21.9 23.7 19.5 86 1.5 E 9 15 5 8 - - 3.8
27/06:30pm 22.5 24.2 19.3 82 2.1 E 9 13 5 7 - - 3.8
27/06:00pm 23.0 24.7 19.4 80 2.3 ESE 9 17 5 9 - - 3.8
27/05:30pm 23.4 24.8 19.5 79 2.5 ESE 11 19 6 10 - - 3.8
27/05:00pm 23.7 24.6 19.2 76 2.9 E 13 19 7 10 - - 3.8
27/04:30pm 24.0 24.7 19.7 77 2.8 E 15 22 8 12 - - 3.8
27/04:00pm 24.4 25.4 19.5 74 3.2 E 13 20 7 11 - - 3.8

Other Formats:

Comma delimited format used in spreadsheet applications
http://www.bom.gov.au/fwo/IDN60801/IDN60801.94759.axf

JavaScript Object Notation format (JSON) in row-major order
http://www.bom.gov.au/fwo/IDN60801/IDN60801.94759.json